Time;durP1;ratioP1;P1;durP2;ratioP2;P2;SDS_P1;SDS_P2;PMS_P1;PMS_P2;Temp;Humidity;BMP_temperature;BMP_pressure;BME280_temperature;BME280_humidity;BME280_pressure;Samples;Min_cycle;Max_cycle;Signal;HPM_P1;HPM_P2
2022/07/24 00:01:15;;;;;;;1.80;1.42;;;;;;;;;;4953936;28;20047;-80
2022/07/24 00:03:44;;;;;;;2.28;1.48;;;;;;;;;;4946635;29;20575;-79
2022/07/24 00:06:14;;;;;;;2.55;1.30;;;;;;;;;;4952366;28;20082;-79
2022/07/24 00:08:42;;;;;;;3.28;1.67;;;;;;;;;;4951801;28;20055;-79
2022/07/24 00:11:11;;;;;;;2.95;1.45;;;;;;;;;;4954716;28;20075;-79
2022/07/24 00:13:39;;;;;;;2.72;1.25;;;;;;;;;;4953962;28;20092;-79
2022/07/24 00:16:08;;;;;;;1.98;1.45;;;;;;;;;;4954440;29;20089;-79
2022/07/24 00:18:37;;;;;;;3.22;1.77;;;;;;;;;;4950561;28;20134;-79
2022/07/24 00:21:08;;;;;;;2.10;1.58;;;;;;;;;;4954010;28;20259;-80
2022/07/24 00:23:38;;;;;;;1.95;1.38;;;;;;;;;;4950680;28;20062;-79
2022/07/24 00:26:09;;;;;;;1.98;1.42;;;;;;;;;;4955103;28;20495;-80
2022/07/24 00:28:38;;;;;;;2.15;1.17;;;;;;;;;;4947338;29;20073;-79
2022/07/24 00:31:09;;;;;;;2.63;1.70;;;;;;;;;;4946264;29;20051;-79
2022/07/24 00:33:38;;;;;;;1.20;1.10;;;;;;;;;;4949233;28;20047;-79
2022/07/24 00:36:10;;;;;;;0.95;0.80;;;;;;;;;;4952659;28;20044;-79
2022/07/24 00:38:40;;;;;;;2.97;1.85;;;;;;;;;;4949377;28;20043;-79
2022/07/24 00:41:08;;;;;;;3.13;1.95;;;;;;;;;;4944852;28;20061;-79
2022/07/24 00:43:57;;;;;;;2.97;1.30;;;;;;;;;;4950778;28;20121;-79
2022/07/24 00:46:25;;;;;;;2.30;1.45;;;;;;;;;;4947614;29;20518;-79
2022/07/24 00:48:54;;;;;;;3.40;1.83;;;;;;;;;;4950438;28;20051;-78
2022/07/24 00:51:23;;;;;;;2.03;1.48;;;;;;;;;;4953748;28;20419;-79
2022/07/24 00:53:53;;;;;;;2.72;1.42;;;;;;;;;;4953572;28;20047;-79
2022/07/24 00:56:21;;;;;;;1.90;1.20;;;;;;;;;;4951299;28;20055;-79
2022/07/24 00:58:50;;;;;;;2.30;1.70;;;;;;;;;;4952550;28;20039;-79
2022/07/24 01:01:19;;;;;;;2.30;1.35;;;;;;;;;;4954125;28;20089;-79
2022/07/24 01:03:47;;;;;;;2.35;1.35;;;;;;;;;;4952418;29;20051;-79
2022/07/24 01:06:16;;;;;;;2.47;1.63;;;;;;;;;;4954091;28;20102;-79
2022/07/24 01:08:45;;;;;;;2.83;1.48;;;;;;;;;;4951824;28;20090;-79
2022/07/24 01:11:14;;;;;;;2.17;1.33;;;;;;;;;;4951249;28;20056;-78
2022/07/24 01:13:43;;;;;;;1.42;1.08;;;;;;;;;;4945683;28;20393;-78
2022/07/24 01:16:12;;;;;;;1.63;1.10;;;;;;;;;;4952747;28;20047;-78
2022/07/24 01:18:40;;;;;;;4.43;1.38;;;;;;;;;;4950310;28;20130;-79
2022/07/24 01:21:11;;;;;;;1.98;1.38;;;;;;;;;;4952554;28;20055;-78
2022/07/24 01:23:39;;;;;;;1.75;1.38;;;;;;;;;;4952200;28;20360;-78
2022/07/24 01:26:11;;;;;;;2.13;1.75;;;;;;;;;;4948579;28;20157;-80
2022/07/24 01:28:39;;;;;;;3.53;1.70;;;;;;;;;;4944180;28;20079;-79
2022/07/24 01:31:08;;;;;;;6.03;1.88;;;;;;;;;;4951634;28;20119;-79
2022/07/24 01:33:37;;;;;;;3.47;1.50;;;;;;;;;;4948064;28;20134;-79
2022/07/24 01:36:08;;;;;;;1.58;1.48;;;;;;;;;;4949341;28;20126;-79
2022/07/24 01:38:38;;;;;;;2.85;1.80;;;;;;;;;;4943005;28;20051;-78
2022/07/24 01:41:09;;;;;;;4.82;2.10;;;;;;;;;;4950826;28;20538;-78
2022/07/24 01:43:40;;;;;;;0.98;0.80;;;;;;;;;;4942164;28;20079;-78
2022/07/24 01:46:09;;;;;;;1.85;1.55;;;;;;;;;;4950425;29;20055;-78
2022/07/24 01:48:38;;;;;;;1.50;1.08;;;;;;;;;;4949394;28;20082;-78
2022/07/24 01:51:09;;;;;;;1.45;1.08;;;;;;;;;;4951281;28;20058;-79
2022/07/24 01:53:39;;;;;;;2.67;1.55;;;;;;;;;;4952567;28;20051;-78
2022/07/24 01:56:08;;;;;;;2.47;1.52;;;;;;;;;;4946546;29;20078;-78
2022/07/24 01:58:39;;;;;;;2.33;1.40;;;;;;;;;;4945819;28;20162;-79
2022/07/24 02:01:07;;;;;;;4.75;1.73;;;;;;;;;;4948807;29;20098;-79
2022/07/24 02:03:36;;;;;;;4.95;1.88;;;;;;;;;;4948756;28;20035;-78
2022/07/24 02:06:08;;;;;;;2.60;1.50;;;;;;;;;;4952009;28;20051;-78
2022/07/24 02:08:36;;;;;;;2.25;1.42;;;;;;;;;;4950164;28;20070;-79
2022/07/24 02:11:09;;;;;;;1.63;1.10;;;;;;;;;;4952378;29;20089;-78
2022/07/24 02:13:39;;;;;;;4.78;1.60;;;;;;;;;;4951008;29;20047;-78
2022/07/24 02:16:10;;;;;;;2.00;1.10;;;;;;;;;;4951418;28;20051;-78
2022/07/24 02:18:39;;;;;;;1.98;1.48;;;;;;;;;;4950895;28;20051;-79
2022/07/24 02:21:10;;;;;;;1.90;1.10;;;;;;;;;;4952289;28;20079;-79
2022/07/24 02:23:39;;;;;;;1.65;0.88;;;;;;;;;;4948646;29;20134;-79
2022/07/24 02:26:12;;;;;;;2.72;1.60;;;;;;;;;;4939723;28;20453;-79
2022/07/24 02:28:40;;;;;;;2.13;1.42;;;;;;;;;;4948418;28;20055;-79
2022/07/24 02:31:09;;;;;;;2.92;1.70;;;;;;;;;;4948993;28;20067;-80
2022/07/24 02:33:37;;;;;;;2.58;1.13;;;;;;;;;;4950958;29;20106;-79
2022/07/24 02:36:09;;;;;;;1.67;1.10;;;;;;;;;;4947169;28;20051;-79
2022/07/24 02:38:37;;;;;;;1.77;1.08;;;;;;;;;;4949601;28;20130;-79
2022/07/24 02:41:09;;;;;;;4.03;2.22;;;;;;;;;;4946745;28;20137;-78
2022/07/24 02:43:39;;;;;;;4.28;1.58;;;;;;;;;;4950569;28;20051;-79
2022/07/24 02:46:08;;;;;;;3.33;1.45;;;;;;;;;;4950344;28;20567;-79
2022/07/24 02:48:37;;;;;;;1.58;1.20;;;;;;;;;;4947267;28;20055;-78
2022/07/24 02:51:10;;;;;;;2.10;1.27;;;;;;;;;;4947052;28;21562;-78
2022/07/24 02:53:38;;;;;;;1.30;1.10;;;;;;;;;;4949921;28;20098;-80
2022/07/24 02:56:10;;;;;;;1.52;1.20;;;;;;;;;;4950656;28;20076;-79
2022/07/24 02:58:40;;;;;;;1.75;1.10;;;;;;;;;;4951887;28;20047;-79
2022/07/24 03:01:08;;;;;;;1.85;1.33;;;;;;;;;;4947928;28;20091;-79
2022/07/24 03:03:37;;;;;;;3.08;1.55;;;;;;;;;;4941443;28;20055;-79
2022/07/24 03:06:08;;;;;;;1.63;1.17;;;;;;;;;;4953381;28;20082;-79
2022/07/24 03:08:37;;;;;;;1.02;0.82;;;;;;;;;;4954949;28;20511;-80
2022/07/24 03:11:08;;;;;;;1.70;1.23;;;;;;;;;;4954915;28;20401;-79
2022/07/24 03:13:37;;;;;;;1.30;1.05;;;;;;;;;;4954140;28;20156;-79
2022/07/24 03:16:10;;;;;;;1.13;1.02;;;;;;;;;;4947253;28;20055;-79
2022/07/24 03:18:41;;;;;;;1.75;1.27;;;;;;;;;;4952665;28;20058;-79
2022/07/24 03:21:09;;;;;;;1.02;0.98;;;;;;;;;;4955863;28;20051;-78
2022/07/24 03:23:58;;;;;;;1.10;0.82;;;;;;;;;;4953830;28;20131;-79
2022/07/24 03:26:27;;;;;;;2.72;1.52;;;;;;;;;;4952617;29;20082;-79
2022/07/24 03:28:56;;;;;;;2.05;1.33;;;;;;;;;;4954565;29;20047;-79
2022/07/24 03:31:25;;;;;;;1.50;1.30;;;;;;;;;;4950812;29;20086;-78
2022/07/24 03:33:54;;;;;;;1.73;1.08;;;;;;;;;;4952569;28;20141;-78
2022/07/24 03:36:23;;;;;;;3.42;1.77;;;;;;;;;;4946967;29;20113;-79
2022/07/24 03:38:51;;;;;;;2.67;1.67;;;;;;;;;;4955687;28;20134;-79
2022/07/24 03:41:19;;;;;;;1.60;1.23;;;;;;;;;;4953566;28;20050;-79
2022/07/24 03:43:48;;;;;;;1.33;1.02;;;;;;;;;;4952090;29;20503;-79
2022/07/24 03:46:16;;;;;;;2.15;1.00;;;;;;;;;;4953232;28;20170;-78
2022/07/24 03:48:46;;;;;;;1.80;1.13;;;;;;;;;;4954310;28;20093;-79
2022/07/24 03:51:15;;;;;;;2.50;1.50;;;;;;;;;;4952377;28;20484;-79
2022/07/24 03:53:46;;;;;;;3.72;1.30;;;;;;;;;;4953015;28;22012;-79
2022/07/24 03:56:17;;;;;;;2.47;1.90;;;;;;;;;;4953071;28;20407;-79
2022/07/24 03:58:46;;;;;;;1.75;1.48;;;;;;;;;;4955074;28;20078;-79
2022/07/24 04:01:15;;;;;;;1.73;1.15;;;;;;;;;;4952695;28;20062;-78
2022/07/24 04:03:43;;;;;;;1.65;1.23;;;;;;;;;;4954171;28;20138;-78
2022/07/24 04:06:13;;;;;;;2.15;1.13;;;;;;;;;;4952471;28;20098;-78
2022/07/24 04:08:42;;;;;;;1.15;0.85;;;;;;;;;;4953817;28;20131;-78
2022/07/24 04:11:10;;;;;;;3.00;1.30;;;;;;;;;;4950744;28;20076;-79
2022/07/24 04:13:39;;;;;;;1.95;1.23;;;;;;;;;;4953217;29;20078;-79
2022/07/24 04:16:11;;;;;;;2.58;1.48;;;;;;;;;;4953476;28;20055;-79
2022/07/24 04:18:40;;;;;;;1.90;1.08;;;;;;;;;;4951474;28;20503;-79
2022/07/24 04:21:09;;;;;;;1.65;1.20;;;;;;;;;;4946892;29;20067;-78
2022/07/24 04:23:39;;;;;;;2.85;1.05;;;;;;;;;;4950457;28;20130;-79
2022/07/24 04:26:10;;;;;;;1.92;1.35;;;;;;;;;;4955402;29;20146;-78
2022/07/24 04:28:38;;;;;;;1.42;0.98;;;;;;;;;;4952567;28;20055;-78
2022/07/24 04:31:10;;;;;;;1.50;1.15;;;;;;;;;;4947585;29;20522;-80
2022/07/24 04:33:38;;;;;;;0.75;0.73;;;;;;;;;;4950643;29;20051;-79
2022/07/24 04:36:10;;;;;;;1.88;1.08;;;;;;;;;;4949828;28;20078;-79
2022/07/24 04:38:41;;;;;;;2.40;1.35;;;;;;;;;;4951536;28;20501;-79
2022/07/24 04:41:10;;;;;;;3.50;1.63;;;;;;;;;;4949089;28;20085;-79
2022/07/24 04:43:38;;;;;;;1.50;0.90;;;;;;;;;;4945379;29;20090;-78
2022/07/24 04:46:09;;;;;;;1.48;1.00;;;;;;;;;;4953810;28;20178;-79
2022/07/24 04:48:38;;;;;;;1.92;1.40;;;;;;;;;;4952736;28;20053;-78
2022/07/24 04:51:09;;;;;;;2.25;1.50;;;;;;;;;;4952090;28;20554;-78
2022/07/24 04:53:38;;;;;;;1.15;0.88;;;;;;;;;;4948461;29;20048;-78
2022/07/24 04:56:10;;;;;;;5.68;1.02;;;;;;;;;;4951823;29;20047;-79
2022/07/24 04:58:39;;;;;;;1.08;0.73;;;;;;;;;;4948680;28;20123;-79
2022/07/24 05:01:07;;;;;;;2.45;1.45;;;;;;;;;;4949815;29;20075;-78
2022/07/24 05:03:36;;;;;;;3.45;1.63;;;;;;;;;;4949596;28;20073;-78
2022/07/24 05:06:07;;;;;;;1.77;1.63;;;;;;;;;;4951429;28;20079;-78
2022/07/24 05:08:36;;;;;;;1.23;1.08;;;;;;;;;;4949394;28;20135;-78
2022/07/24 05:11:06;;;;;;;3.33;1.55;;;;;;;;;;4953816;28;20066;-79
2022/07/24 05:13:36;;;;;;;1.33;1.08;;;;;;;;;;4944536;29;20470;-79
2022/07/24 05:16:08;;;;;;;3.15;1.00;;;;;;;;;;4953943;28;20058;-78
2022/07/24 05:18:36;;;;;;;1.70;1.08;;;;;;;;;;4951707;28;20061;-78
2022/07/24 05:21:08;;;;;;;1.48;1.05;;;;;;;;;;4950686;28;20134;-79
2022/07/24 05:23:36;;;;;;;2.47;1.40;;;;;;;;;;4949893;28;20046;-79
2022/07/24 05:26:08;;;;;;;1.92;1.63;;;;;;;;;;4954108;28;20138;-79
2022/07/24 05:28:38;;;;;;;1.92;1.48;;;;;;;;;;4952400;28;20121;-79
2022/07/24 05:31:09;;;;;;;2.17;1.70;;;;;;;;;;4952448;28;20098;-79
2022/07/24 05:33:37;;;;;;;1.15;1.05;;;;;;;;;;4948664;28;20130;-79
2022/07/24 05:36:09;;;;;;;2.30;1.33;;;;;;;;;;4947866;28;20133;-80
2022/07/24 05:38:38;;;;;;;1.40;1.30;;;;;;;;;;4947016;28;20066;-78
2022/07/24 05:41:09;;;;;;;1.20;1.10;;;;;;;;;;4953753;28;20494;-79
2022/07/24 05:43:39;;;;;;;3.90;2.03;;;;;;;;;;4945982;28;20090;-78
2022/07/24 05:46:08;;;;;;;1.65;1.33;;;;;;;;;;4953105;28;20162;-79
2022/07/24 05:48:42;;;;;;;2.90;1.75;;;;;;;;;;4952105;29;20055;-79
2022/07/24 05:51:10;;;;;;;2.83;1.52;;;;;;;;;;4949682;28;20087;-78
2022/07/24 05:53:39;;;;;;;2.75;1.98;;;;;;;;;;4949208;28;20146;-79
2022/07/24 05:56:08;;;;;;;1.25;0.90;;;;;;;;;;4951680;28;20135;-78
2022/07/24 05:58:36;;;;;;;3.42;1.70;;;;;;;;;;4951597;28;20089;-78
2022/07/24 06:01:08;;;;;;;3.20;1.50;;;;;;;;;;4937145;29;20115;-79
2022/07/24 06:03:38;;;;;;;3.13;1.92;;;;;;;;;;4950171;28;20078;-78
2022/07/24 06:06:09;;;;;;;2.15;1.70;;;;;;;;;;4949293;28;20467;-78
2022/07/24 06:08:39;;;;;;;1.95;1.50;;;;;;;;;;4952851;28;20081;-78
2022/07/24 06:11:08;;;;;;;3.78;1.42;;;;;;;;;;4953427;28;20478;-78
2022/07/24 06:13:37;;;;;;;5.10;1.65;;;;;;;;;;4952746;28;20547;-79
2022/07/24 06:16:11;;;;;;;2.90;1.92;;;;;;;;;;4949085;28;20055;-78
2022/07/24 06:18:39;;;;;;;3.40;2.05;;;;;;;;;;4951890;28;20051;-79
2022/07/24 06:21:08;;;;;;;2.22;1.33;;;;;;;;;;4951756;28;20053;-78
2022/07/24 06:23:37;;;;;;;3.25;2.17;;;;;;;;;;4950439;28;20078;-79
2022/07/24 06:26:08;;;;;;;3.05;1.75;;;;;;;;;;4947733;28;20563;-79
2022/07/24 06:28:36;;;;;;;2.10;1.38;;;;;;;;;;4947592;28;20096;-79
2022/07/24 06:31:07;;;;;;;3.05;1.55;;;;;;;;;;4949767;28;20122;-79
2022/07/24 06:33:45;;;;;;;2.53;1.17;;;;;;;;;;4940673;29;20071;-79
2022/07/24 06:36:13;;;;;;;2.45;1.80;;;;;;;;;;4947797;29;20090;-79
2022/07/24 06:38:42;;;;;;;3.42;1.88;;;;;;;;;;4948554;29;20131;-78
2022/07/24 06:41:10;;;;;;;4.55;2.10;;;;;;;;;;4948402;28;20051;-79
2022/07/24 06:43:39;;;;;;;2.80;1.58;;;;;;;;;;4948801;28;20439;-79
2022/07/24 06:46:10;;;;;;;2.45;1.83;;;;;;;;;;4947182;28;20102;-79
2022/07/24 06:48:39;;;;;;;2.22;1.90;;;;;;;;;;4948521;28;20055;-79
2022/07/24 06:51:09;;;;;;;2.92;1.52;;;;;;;;;;4948760;28;20078;-79
2022/07/24 06:53:40;;;;;;;4.25;1.83;;;;;;;;;;4944608;28;20102;-79
2022/07/24 06:56:09;;;;;;;2.58;1.75;;;;;;;;;;4946866;28;20138;-79
2022/07/24 06:58:37;;;;;;;3.13;1.48;;;;;;;;;;4948102;28;20109;-78
2022/07/24 07:01:09;;;;;;;2.38;1.40;;;;;;;;;;4945508;29;20083;-80
2022/07/24 07:03:38;;;;;;;2.97;1.80;;;;;;;;;;4946001;28;20043;-79
2022/07/24 07:06:11;;;;;;;2.03;1.70;;;;;;;;;;4943711;28;20134;-78
2022/07/24 07:08:39;;;;;;;3.88;2.22;;;;;;;;;;4947132;28;20142;-79
2022/07/24 07:11:10;;;;;;;2.80;1.55;;;;;;;;;;4949146;28;20055;-79
2022/07/24 07:13:39;;;;;;;2.88;1.33;;;;;;;;;;4948182;29;20067;-78
2022/07/24 07:16:10;;;;;;;2.28;1.55;;;;;;;;;;4946992;28;20094;-79
2022/07/24 07:18:39;;;;;;;4.47;1.73;;;;;;;;;;4946236;28;20503;-78
2022/07/24 07:21:12;;;;;;;2.40;1.60;;;;;;;;;;4947660;28;20054;-79
2022/07/24 07:23:40;;;;;;;3.85;1.88;;;;;;;;;;4945803;28;20078;-79
2022/07/24 07:26:15;;;;;;;2.42;1.77;;;;;;;;;;4942783;28;20063;-79
2022/07/24 07:28:43;;;;;;;3.72;1.77;;;;;;;;;;4942233;28;20051;-78
2022/07/24 07:31:12;;;;;;;8.20;1.60;;;;;;;;;;4948058;28;20047;-79
2022/07/24 07:33:41;;;;;;;3.47;1.90;;;;;;;;;;4947005;28;20621;-79
2022/07/24 07:36:10;;;;;;;4.28;2.00;;;;;;;;;;4948867;29;20094;-79
2022/07/24 07:38:40;;;;;;;2.55;1.17;;;;;;;;;;4947039;28;20059;-79
2022/07/24 07:41:08;;;;;;;2.30;1.50;;;;;;;;;;4948859;28;20054;-79
2022/07/24 07:43:38;;;;;;;2.90;1.42;;;;;;;;;;4947239;28;20158;-78
2022/07/24 07:46:10;;;;;;;2.03;1.35;;;;;;;;;;4947391;28;20107;-78
2022/07/24 07:48:38;;;;;;;3.25;1.70;;;;;;;;;;4946239;28;20138;-79
2022/07/24 07:51:10;;;;;;;3.25;1.45;;;;;;;;;;4946051;28;20142;-78
2022/07/24 07:53:40;;;;;;;3.33;1.90;;;;;;;;;;4952573;28;20059;-78
2022/07/24 07:56:08;;;;;;;3.40;1.95;;;;;;;;;;4951786;28;20098;-79
2022/07/24 07:58:37;;;;;;;1.80;1.40;;;;;;;;;;4950701;28;20794;-79
2022/07/24 08:01:08;;;;;;;3.03;1.55;;;;;;;;;;4942569;28;20055;-78
2022/07/24 08:03:36;;;;;;;3.00;2.00;;;;;;;;;;4941341;28;20122;-79
2022/07/24 08:06:08;;;;;;;1.65;1.30;;;;;;;;;;4947352;28;20055;-79
2022/07/24 08:08:44;;;;;;;2.58;1.60;;;;;;;;;;4945829;28;20182;-79
2022/07/24 08:11:14;;;;;;;3.08;2.05;;;;;;;;;;4950934;28;20044;-79
2022/07/24 08:13:42;;;;;;;2.22;1.20;;;;;;;;;;4949157;28;20158;-79
2022/07/24 08:16:11;;;;;;;2.20;1.65;;;;;;;;;;4943338;28;20491;-79
2022/07/24 08:18:39;;;;;;;2.33;1.30;;;;;;;;;;4945235;28;20102;-79
2022/07/24 08:21:08;;;;;;;2.40;1.73;;;;;;;;;;4950143;28;20051;-78
2022/07/24 08:23:37;;;;;;;2.97;1.60;;;;;;;;;;4950206;28;20063;-79
2022/07/24 08:26:09;;;;;;;2.28;1.58;;;;;;;;;;4950908;28;20138;-80
2022/07/24 08:28:37;;;;;;;2.45;1.60;;;;;;;;;;4947328;28;20074;-80
2022/07/24 08:31:09;;;;;;;3.65;1.70;;;;;;;;;;4948535;28;20059;-80
2022/07/24 08:33:37;;;;;;;3.15;1.80;;;;;;;;;;4950110;28;20135;-79
2022/07/24 08:36:09;;;;;;;3.60;1.48;;;;;;;;;;4947588;28;20093;-78
2022/07/24 08:38:38;;;;;;;3.75;1.92;;;;;;;;;;4947900;28;20079;-79
2022/07/24 08:41:11;;;;;;;2.53;1.35;;;;;;;;;;4946911;28;20066;-79
2022/07/24 08:43:39;;;;;;;2.42;1.52;;;;;;;;;;4949715;28;20121;-78
2022/07/24 08:46:12;;;;;;;1.88;1.27;;;;;;;;;;4950156;29;20141;-79
2022/07/24 08:48:44;;;;;;;2.22;1.45;;;;;;;;;;4950469;28;20057;-79
2022/07/24 08:51:13;;;;;;;1.50;1.40;;;;;;;;;;4946787;28;20547;-79
2022/07/24 08:53:42;;;;;;;2.42;1.25;;;;;;;;;;4947727;28;20578;-79
2022/07/24 08:56:12;;;;;;;3.70;1.50;;;;;;;;;;4949546;29;20062;-79
2022/07/24 08:58:41;;;;;;;4.22;1.83;;;;;;;;;;4944025;29;20540;-79
2022/07/24 09:01:10;;;;;;;3.90;1.52;;;;;;;;;;4945539;29;20087;-77
2022/07/24 09:03:43;;;;;;;2.40;1.50;;;;;;;;;;4949284;28;20065;-78
2022/07/24 09:06:12;;;;;;;2.97;1.70;;;;;;;;;;4943529;28;20519;-79
2022/07/24 09:08:41;;;;;;;1.88;1.50;;;;;;;;;;4948024;28;20051;-78
2022/07/24 09:11:10;;;;;;;5.72;1.60;;;;;;;;;;4938485;29;20059;-79
2022/07/24 09:16:27;;;;;;;2.08;1.35;;;;;;;;;;4949078;28;20043;-78
2022/07/24 09:19:04;;;;;;;2.53;1.80;;;;;;;;;;4947128;28;20043;-79
2022/07/24 09:21:36;;;;;;;3.42;2.35;;;;;;;;;;4944513;28;20476;-79
2022/07/24 09:24:12;;;;;;;2.75;2.10;;;;;;;;;;4948464;28;20126;-79
2022/07/24 09:26:48;;;;;;;2.40;1.55;;;;;;;;;;4948220;28;20135;-79
2022/07/24 09:29:20;;;;;;;3.40;1.92;;;;;;;;;;4944988;28;20142;-79
2022/07/24 09:31:52;;;;;;;2.85;1.67;;;;;;;;;;4948678;28;20063;-79
2022/07/24 09:34:21;;;;;;;4.40;2.15;;;;;;;;;;4941722;28;20170;-79
2022/07/24 09:36:57;;;;;;;2.05;1.40;;;;;;;;;;4942223;28;20055;-77
2022/07/24 09:39:26;;;;;;;2.13;1.33;;;;;;;;;;4944469;28;20090;-78
2022/07/24 09:41:55;;;;;;;2.15;1.67;;;;;;;;;;4949491;28;20083;-79
2022/07/24 09:44:25;;;;;;;2.58;1.63;;;;;;;;;;4947867;28;20362;-81
2022/07/24 09:46:57;;;;;;;3.15;1.70;;;;;;;;;;4948110;28;20055;-79
2022/07/24 09:49:27;;;;;;;2.97;1.77;;;;;;;;;;4940982;28;20063;-79
2022/07/24 09:52:10;;;;;;;2.40;1.65;;;;;;;;;;4943997;28;20055;-79
2022/07/24 09:54:39;;;;;;;2.10;1.60;;;;;;;;;;4943383;28;20055;-81
2022/07/24 09:57:18;;;;;;;3.88;2.30;;;;;;;;;;4945026;28;20059;-81
2022/07/24 09:59:49;;;;;;;1.77;1.48;;;;;;;;;;4943503;28;20080;-82
2022/07/24 10:02:25;;;;;;;2.17;1.70;;;;;;;;;;4945373;28;20055;-82
2022/07/24 10:04:54;;;;;;;2.17;1.35;;;;;;;;;;4947831;28;20051;-80
2022/07/24 10:07:24;;;;;;;2.08;1.50;;;;;;;;;;4944412;28;20079;-82
2022/07/24 10:09:53;;;;;;;3.33;1.50;;;;;;;;;;4938790;28;20074;-82
2022/07/24 10:12:23;;;;;;;4.43;2.25;;;;;;;;;;4950004;29;20483;-81
2022/07/24 10:14:54;;;;;;;3.25;1.73;;;;;;;;;;4945728;28;20139;-81
2022/07/24 10:17:24;;;;;;;2.20;1.77;;;;;;;;;;4950199;28;20105;-81
2022/07/24 10:19:53;;;;;;;2.08;1.48;;;;;;;;;;4948175;28;20541;-81
2022/07/24 10:22:23;;;;;;;2.75;1.45;;;;;;;;;;4947053;28;20090;-80
2022/07/24 10:24:56;;;;;;;3.65;1.70;;;;;;;;;;4950256;28;20054;-81
2022/07/24 10:27:26;;;;;;;2.83;1.75;;;;;;;;;;4949857;28;20054;-80
2022/07/24 10:29:56;;;;;;;3.60;1.60;;;;;;;;;;4950591;28;20047;-81
2022/07/24 10:32:26;;;;;;;2.53;1.92;;;;;;;;;;4949881;28;20050;-79
2022/07/24 10:35:00;;;;;;;3.17;2.20;;;;;;;;;;4947697;28;20078;-80
2022/07/24 10:37:32;;;;;;;2.97;1.83;;;;;;;;;;4944925;28;20048;-81
2022/07/24 10:40:07;;;;;;;11.77;2.40;;;;;;;;;;4945509;28;20775;-81
2022/07/24 10:42:55;;;;;;;2.00;1.52;;;;;;;;;;4944352;29;20048;-81
2022/07/24 10:45:29;;;;;;;2.65;1.42;;;;;;;;;;4947601;28;20051;-80
2022/07/24 10:47:58;;;;;;;2.85;1.48;;;;;;;;;;4944196;28;20051;-81
2022/07/24 10:50:51;;;;;;;2.95;2.00;;;;;;;;;;4950321;28;20055;-81
2022/07/24 10:53:22;;;;;;;1.85;1.30;;;;;;;;;;4950937;28;20130;-81
2022/07/24 10:55:51;;;;;;;3.63;1.98;;;;;;;;;;4947704;28;20126;-81
2022/07/24 10:58:21;;;;;;;2.70;1.70;;;;;;;;;;4949236;28;20751;-80
2022/07/24 11:00:51;;;;;;;2.33;1.58;;;;;;;;;;4949909;29;20058;-81
2022/07/24 11:03:21;;;;;;;2.70;1.70;;;;;;;;;;4950624;29;20047;-81
2022/07/24 11:06:10;;;;;;;2.92;1.60;;;;;;;;;;4947987;28;20043;-81
2022/07/24 11:08:39;;;;;;;3.15;2.05;;;;;;;;;;4946582;29;20059;-80
2022/07/24 11:11:12;;;;;;;3.75;1.90;;;;;;;;;;4948912;28;20149;-80
2022/07/24 11:13:43;;;;;;;2.83;2.08;;;;;;;;;;4948420;28;20078;-81
2022/07/24 11:16:25;;;;;;;4.77;2.10;;;;;;;;;;4944481;28;20105;-81
2022/07/24 11:19:21;;;;;;;4.10;2.10;;;;;;;;;;4947564;28;20055;-81
2022/07/24 11:21:49;;;;;;;2.25;1.60;;;;;;;;;;4915427;28;20090;-80
2022/07/24 11:24:19;;;;;;;4.80;1.92;;;;;;;;;;4951454;28;20380;-81
2022/07/24 11:26:48;;;;;;;2.85;1.88;;;;;;;;;;4950945;28;20455;-80
2022/07/24 11:29:18;;;;;;;3.47;1.80;;;;;;;;;;4954272;28;20089;-81
2022/07/24 11:31:48;;;;;;;4.72;2.08;;;;;;;;;;4947951;28;20083;-80
2022/07/24 11:34:17;;;;;;;2.80;1.70;;;;;;;;;;4950815;28;20054;-83
2022/07/24 11:36:47;;;;;;;3.40;1.98;;;;;;;;;;4943067;28;20134;-84
2022/07/24 11:39:16;;;;;;;3.03;1.85;;;;;;;;;;4951509;28;20519;-84
2022/07/24 11:41:46;;;;;;;2.92;1.75;;;;;;;;;;4949897;28;20118;-83
2022/07/24 11:44:15;;;;;;;2.38;1.42;;;;;;;;;;4955718;28;20086;-84
2022/07/24 11:46:43;;;;;;;2.47;1.73;;;;;;;;;;4952440;28;20130;-84
2022/07/24 11:49:13;;;;;;;2.45;1.40;;;;;;;;;;4954753;28;20062;-81
2022/07/24 11:51:43;;;;;;;2.30;1.88;;;;;;;;;;4952471;29;20260;-82
2022/07/24 11:54:12;;;;;;;3.47;1.90;;;;;;;;;;4953023;28;20130;-81
2022/07/24 11:56:41;;;;;;;4.88;2.03;;;;;;;;;;4949322;28;20051;-81
2022/07/24 11:59:22;;;;;;;2.00;1.50;;;;;;;;;;4951115;28;20074;-82
2022/07/24 12:01:50;;;;;;;2.33;1.70;;;;;;;;;;4945711;28;20468;-83
2022/07/24 12:04:24;;;;;;;3.58;1.95;;;;;;;;;;4952638;28;20059;-81
2022/07/24 12:06:52;;;;;;;2.55;1.85;;;;;;;;;;4949950;28;20099;-82
2022/07/24 12:09:21;;;;;;;2.05;1.55;;;;;;;;;;4952227;28;20118;-80
2022/07/24 12:11:50;;;;;;;3.30;1.65;;;;;;;;;;4955338;28;20051;-81
2022/07/24 12:14:22;;;;;;;2.70;1.35;;;;;;;;;;4950011;28;20101;-81
2022/07/24 12:16:55;;;;;;;3.47;1.80;;;;;;;;;;4949097;28;20243;-81
2022/07/24 12:19:25;;;;;;;3.35;1.75;;;;;;;;;;4950557;28;20479;-81
2022/07/24 12:21:55;;;;;;;2.63;1.60;;;;;;;;;;4947657;28;20102;-81
2022/07/24 12:24:24;;;;;;;4.55;2.25;;;;;;;;;;4953243;29;20079;-81
2022/07/24 12:26:59;;;;;;;1.92;1.30;;;;;;;;;;4951930;28;20457;-81
2022/07/24 12:29:28;;;;;;;1.75;1.20;;;;;;;;;;4950416;28;20055;-81
2022/07/24 12:32:12;;;;;;;3.30;1.63;;;;;;;;;;4949649;29;20488;-82
2022/07/24 12:34:45;;;;;;;3.47;2.00;;;;;;;;;;4946859;28;20109;-82
2022/07/24 12:37:39;;;;;;;5.63;1.95;;;;;;;;;;4941551;28;20245;-82
2022/07/24 12:40:07;;;;;;;3.13;2.00;;;;;;;;;;4948630;28;20138;-82
2022/07/24 12:42:36;;;;;;;2.72;1.27;;;;;;;;;;4939807;28;20583;-82
2022/07/24 12:45:09;;;;;;;2.60;1.48;;;;;;;;;;4944792;28;20554;-82
2022/07/24 12:47:52;;;;;;;3.55;1.88;;;;;;;;;;4946162;28;20106;-82
2022/07/24 12:50:29;;;;;;;3.80;1.52;;;;;;;;;;4949353;28;20065;-82
2022/07/24 12:53:18;;;;;;;3.35;1.90;;;;;;;;;;4939478;28;20051;-82
2022/07/24 12:56:01;;;;;;;3.10;1.80;;;;;;;;;;4948070;28;20055;-82
2022/07/24 12:58:29;;;;;;;1.95;1.45;;;;;;;;;;4943174;28;20044;-83
2022/07/24 13:00:58;;;;;;;5.13;2.28;;;;;;;;;;4940394;28;20130;-81
2022/07/24 13:03:27;;;;;;;2.78;2.05;;;;;;;;;;4943264;28;20074;-81
2022/07/24 13:05:57;;;;;;;2.85;1.80;;;;;;;;;;4945728;28;20066;-83
2022/07/24 13:08:28;;;;;;;2.20;1.60;;;;;;;;;;4943064;29;20575;-81
2022/07/24 13:10:56;;;;;;;2.50;1.70;;;;;;;;;;4945243;28;20317;-81
2022/07/24 13:13:25;;;;;;;3.78;2.03;;;;;;;;;;4947219;29;20153;-81
2022/07/24 13:15:53;;;;;;;2.92;1.75;;;;;;;;;;4943633;28;20055;-82
2022/07/24 13:18:22;;;;;;;3.25;1.80;;;;;;;;;;4949288;28;20058;-82
2022/07/24 13:20:51;;;;;;;2.20;1.40;;;;;;;;;;4944068;28;20059;-81
2022/07/24 13:23:21;;;;;;;3.47;1.95;;;;;;;;;;4945247;29;20055;-82
2022/07/24 13:25:49;;;;;;;2.25;1.55;;;;;;;;;;4950643;28;20051;-81
2022/07/24 13:28:18;;;;;;;4.80;2.00;;;;;;;;;;4948060;28;20055;-81
2022/07/24 13:30:46;;;;;;;3.33;2.13;;;;;;;;;;4949502;28;20063;-81
2022/07/24 13:33:15;;;;;;;2.03;1.70;;;;;;;;;;4945366;28;20130;-81
2022/07/24 13:35:44;;;;;;;4.43;1.77;;;;;;;;;;4946151;28;20043;-81
2022/07/24 13:38:12;;;;;;;1.77;1.60;;;;;;;;;;4944968;28;20102;-82
2022/07/24 13:40:42;;;;;;;3.22;2.10;;;;;;;;;;4946480;28;20537;-82
2022/07/24 13:43:11;;;;;;;2.65;1.90;;;;;;;;;;4946422;29;20512;-81
2022/07/24 13:45:39;;;;;;;2.55;1.50;;;;;;;;;;4947152;28;20051;-82
2022/07/24 13:48:08;;;;;;;2.67;1.70;;;;;;;;;;4948150;28;20055;-84
2022/07/24 13:50:36;;;;;;;4.47;1.50;;;;;;;;;;4947884;28;20070;-81
2022/07/24 13:53:05;;;;;;;2.55;1.80;;;;;;;;;;4937061;29;20558;-81
2022/07/24 13:55:34;;;;;;;3.20;1.83;;;;;;;;;;4947734;29;20054;-81
2022/07/24 13:58:04;;;;;;;3.47;2.20;;;;;;;;;;4947665;28;20622;-80
2022/07/24 14:00:32;;;;;;;2.83;1.77;;;;;;;;;;4946068;28;20055;-82
2022/07/24 14:03:01;;;;;;;3.38;1.92;;;;;;;;;;4945741;29;20098;-82
2022/07/24 14:05:49;;;;;;;3.53;2.20;;;;;;;;;;4943985;28;20051;-81
2022/07/24 14:08:18;;;;;;;3.35;1.52;;;;;;;;;;4943861;28;20059;-81
2022/07/24 14:10:46;;;;;;;3.05;1.67;;;;;;;;;;4938099;29;20078;-82
2022/07/24 14:13:16;;;;;;;3.13;1.85;;;;;;;;;;4949011;28;20054;-82
2022/07/24 14:15:45;;;;;;;3.05;1.90;;;;;;;;;;4943262;28;20134;-80
2022/07/24 14:18:14;;;;;;;3.70;2.00;;;;;;;;;;4944107;28;20508;-81
2022/07/24 14:20:43;;;;;;;2.03;1.48;;;;;;;;;;4944877;28;20047;-82
2022/07/24 14:23:12;;;;;;;2.38;1.60;;;;;;;;;;4944250;28;20063;-82
2022/07/24 14:25:40;;;;;;;3.15;1.60;;;;;;;;;;4944626;29;20047;-82
2022/07/24 14:28:09;;;;;;;2.60;1.33;;;;;;;;;;4947543;28;20341;-80
2022/07/24 14:30:39;;;;;;;3.08;1.90;;;;;;;;;;4949013;28;20109;-82
2022/07/24 14:33:08;;;;;;;2.17;1.60;;;;;;;;;;4946164;28;20121;-82
2022/07/24 14:35:37;;;;;;;2.25;1.38;;;;;;;;;;4944428;28;20051;-82
2022/07/24 14:38:05;;;;;;;5.30;1.73;;;;;;;;;;4943101;28;20134;-82
2022/07/24 14:40:34;;;;;;;2.55;1.73;;;;;;;;;;4948127;28;20079;-81
2022/07/24 14:43:02;;;;;;;4.30;2.38;;;;;;;;;;4946640;29;20255;-81
2022/07/24 14:45:30;;;;;;;6.72;2.20;;;;;;;;;;4947735;28;20609;-81
2022/07/24 14:48:00;;;;;;;4.70;1.92;;;;;;;;;;4945733;28;20491;-81
2022/07/24 14:50:29;;;;;;;4.05;1.40;;;;;;;;;;4948426;28;20121;-81
2022/07/24 14:52:58;;;;;;;3.83;1.75;;;;;;;;;;4944418;28;20055;-81
2022/07/24 14:55:27;;;;;;;3.15;1.98;;;;;;;;;;4947419;28;20063;-82
2022/07/24 14:57:55;;;;;;;3.00;1.92;;;;;;;;;;4941442;28;20083;-81
2022/07/24 15:00:23;;;;;;;5.15;2.20;;;;;;;;;;4944632;28;20094;-82
2022/07/24 15:02:52;;;;;;;2.60;2.00;;;;;;;;;;4945630;28;20051;-81
2022/07/24 15:05:23;;;;;;;3.22;2.13;;;;;;;;;;4947819;28;20082;-81